createdAt,value
2023-07-17T00:02:10.684Z,73.36
2023-07-17T00:04:38.576Z,73.69
2023-07-17T00:07:07.912Z,73.33
2023-07-17T00:09:35.556Z,73.56
2023-07-17T00:12:04.440Z,73.25
2023-07-17T00:14:32.065Z,73.44
2023-07-17T00:16:59.814Z,73.10
2023-07-17T00:19:27.513Z,73.47
2023-07-17T00:21:55.221Z,73.47
2023-07-17T00:24:24.234Z,73.29
2023-07-17T00:26:51.965Z,73.73
2023-07-17T00:29:24.765Z,73.87
2023-07-17T00:31:52.622Z,73.96
2023-07-17T00:34:20.701Z,73.68
2023-07-17T00:36:48.745Z,73.98
2023-07-17T00:39:16.631Z,73.82
2023-07-17T00:41:45.565Z,74.03
2023-07-17T00:44:13.276Z,73.82
2023-07-17T00:46:40.957Z,73.94
2023-07-17T00:49:09.059Z,73.92
2023-07-17T00:51:37.115Z,73.64
2023-07-17T00:54:04.929Z,73.54
2023-07-17T00:56:32.651Z,73.11
2023-07-17T00:59:01.877Z,73.31
2023-07-17T01:01:29.667Z,73.61
2023-07-17T01:03:58.293Z,74.16
2023-07-17T01:06:28.736Z,74.49
2023-07-17T01:08:56.498Z,75.09
2023-07-17T01:11:24.082Z,75.72
2023-07-17T01:13:52.815Z,75.53
2023-07-17T01:16:21.863Z,75.26
2023-07-17T01:18:49.691Z,74.98
2023-07-17T01:21:20.412Z,75.33
2023-07-17T01:23:49.603Z,76.06
2023-07-17T01:26:18.549Z,76.04
2023-07-17T01:28:47.297Z,75.64
2023-07-17T01:31:15.116Z,76.51
2023-07-17T01:33:42.997Z,76.71
2023-07-17T01:36:12.603Z,76.90
2023-07-17T01:38:40.237Z,76.92
2023-07-17T01:41:09.393Z,77.23
2023-07-17T01:43:37.000Z,77.68
2023-07-17T01:46:04.922Z,77.35
2023-07-17T01:48:32.818Z,77.66
2023-07-17T01:51:00.493Z,77.67
2023-07-17T01:53:28.104Z,78.61
2023-07-17T01:55:55.819Z,78.15
2023-07-17T01:58:24.833Z,79.28
2023-07-17T02:00:54.626Z,80.34
2023-07-17T02:03:22.618Z,80.01
2023-07-17T02:05:51.584Z,80.47
2023-07-17T02:08:19.254Z,80.72
2023-07-17T02:10:50.221Z,81.78
2023-07-17T02:13:17.875Z,82.03
2023-07-17T02:15:47.926Z,82.25
2023-07-17T02:18:15.771Z,82.62
2023-07-17T02:20:43.411Z,82.81
2023-07-17T02:23:11.205Z,83.35
2023-07-17T02:25:38.976Z,83.24
2023-07-17T02:28:06.585Z,83.52
2023-07-17T02:30:34.271Z,83.30
2023-07-17T02:33:04.142Z,83.48
2023-07-17T02:35:31.957Z,82.30
2023-07-17T02:37:59.632Z,82.55
2023-07-17T02:40:27.485Z,82.84
2023-07-17T02:42:55.215Z,83.55
2023-07-17T02:45:22.955Z,83.48
2023-07-17T02:47:50.631Z,83.71
2023-07-17T02:50:19.785Z,83.71
2023-07-17T02:52:47.506Z,83.93
2023-07-17T02:55:15.335Z,84.11
2023-07-17T02:57:43.156Z,83.92
2023-07-17T03:00:12.560Z,83.50
2023-07-17T03:02:41.114Z,84.95
2023-07-17T03:05:10.361Z,84.85
2023-07-17T03:07:42.235Z,85.88
2023-07-17T03:10:11.173Z,86.33
2023-07-17T03:12:38.857Z,86.29
2023-07-17T03:15:07.811Z,85.78
2023-07-17T03:17:35.629Z,86.88
2023-07-17T03:20:05.617Z,87.33
2023-07-17T03:22:33.553Z,87.97
2023-07-17T03:25:04.336Z,88.14
2023-07-17T03:27:32.011Z,87.90
2023-07-17T03:29:59.644Z,87.35
2023-07-17T03:32:27.356Z,87.84
2023-07-17T03:34:55.006Z,87.32
2023-07-17T03:37:22.638Z,86.65
2023-07-17T03:39:50.263Z,87.74
2023-07-17T03:42:19.268Z,87.64
2023-07-17T03:44:47.096Z,87.03
2023-07-17T03:47:14.870Z,88.63
2023-07-17T03:49:42.643Z,87.99
2023-07-17T03:52:10.344Z,88.21
2023-07-17T03:54:38.012Z,88.26
2023-07-17T03:57:06.090Z,88.56
2023-07-17T03:59:49.014Z,88.57
2023-07-17T04:02:16.817Z,88.33
2023-07-17T04:04:44.437Z,88.14
2023-07-17T04:07:12.414Z,88.99
2023-07-17T04:09:41.992Z,88.41
2023-07-17T04:12:10.386Z,87.66
2023-07-17T04:14:39.385Z,88.67
2023-07-17T04:17:07.438Z,89.42
2023-07-17T04:19:35.242Z,88.56
2023-07-17T04:22:02.884Z,88.44
2023-07-17T04:24:30.593Z,90.53
2023-07-17T04:26:58.401Z,89.97
2023-07-17T04:29:26.135Z,88.99
2023-07-17T04:31:55.159Z,88.88
2023-07-17T04:34:22.881Z,88.61
2023-07-17T04:36:51.496Z,87.89
2023-07-17T04:39:19.188Z,88.31
2023-07-17T04:41:46.794Z,88.81
2023-07-17T04:44:14.517Z,89.31
2023-07-17T04:46:42.207Z,89.69
2023-07-17T04:49:11.425Z,90.02
2023-07-17T04:51:39.219Z,89.69
2023-07-17T04:54:06.949Z,89.16
2023-07-17T04:56:34.597Z,89.13
2023-07-17T04:59:02.242Z,87.40
2023-07-17T05:01:30.110Z,88.45
2023-07-17T05:03:57.949Z,87.78
2023-07-17T05:06:27.149Z,87.60
2023-07-17T05:08:54.951Z,87.05
2023-07-17T05:11:22.677Z,86.65
2023-07-17T05:13:50.429Z,87.04
2023-07-17T05:16:18.136Z,86.98
2023-07-17T05:18:45.971Z,86.79
2023-07-17T05:21:13.816Z,86.49
2023-07-17T05:23:42.873Z,86.29
2023-07-17T05:26:10.539Z,86.51
2023-07-17T05:28:41.437Z,85.74
2023-07-17T05:31:09.289Z,85.79
2023-07-17T05:33:37.134Z,86.49
2023-07-17T05:36:04.969Z,86.34
2023-07-17T05:38:32.634Z,87.07
2023-07-17T05:41:01.796Z,86.42
2023-07-17T05:43:29.533Z,85.23
2023-07-17T05:45:57.482Z,85.42
2023-07-17T05:48:25.167Z,85.52
2023-07-17T05:50:52.864Z,85.21
2023-07-17T05:53:20.499Z,84.71
2023-07-17T05:55:48.534Z,85.00
2023-07-17T05:58:17.607Z,83.94
2023-07-17T06:00:46.971Z,83.56
2023-07-17T06:03:14.616Z,81.45
2023-07-17T06:05:42.273Z,81.69
2023-07-17T06:08:10.188Z,81.44
2023-07-17T06:10:37.908Z,81.08
2023-07-17T06:13:05.672Z,80.71
2023-07-17T06:15:34.758Z,80.39
2023-07-17T06:18:02.690Z,79.66
2023-07-17T06:20:30.370Z,80.23
2023-07-17T06:22:58.098Z,80.90
2023-07-17T06:25:25.927Z,81.59
2023-07-17T06:27:53.718Z,81.53
2023-07-17T06:30:21.756Z,80.97
2023-07-17T06:32:50.980Z,80.80
2023-07-17T06:35:18.894Z,79.79
2023-07-17T06:37:46.767Z,79.71
2023-07-17T06:40:16.658Z,78.38
2023-07-17T06:42:44.576Z,76.76
2023-07-17T06:45:12.586Z,76.10
2023-07-17T06:47:40.423Z,76.30
2023-07-17T06:50:10.335Z,76.56
2023-07-17T06:52:39.529Z,74.79
2023-07-17T06:55:09.405Z,75.65
2023-07-17T06:57:37.152Z,74.89
2023-07-17T07:00:06.812Z,74.94
2023-07-17T07:02:34.695Z,74.74
2023-07-17T07:05:03.315Z,74.19
2023-07-17T07:07:32.352Z,73.80
2023-07-17T07:10:00.265Z,74.30
2023-07-17T07:12:27.916Z,73.92
2023-07-17T07:14:55.726Z,72.33
2023-07-17T07:17:23.602Z,72.25
2023-07-17T07:19:52.888Z,72.12
2023-07-17T07:22:20.604Z,72.98
2023-07-17T07:24:49.622Z,72.00
2023-07-17T07:27:17.277Z,71.65
2023-07-17T07:29:45.267Z,70.40
2023-07-17T07:32:12.935Z,69.84
2023-07-17T07:34:40.679Z,69.50
2023-07-17T07:37:08.332Z,69.11
2023-07-17T07:39:36.129Z,68.29
2023-07-17T07:42:05.583Z,68.61
2023-07-17T07:44:33.259Z,66.89
2023-07-17T07:47:00.889Z,66.10
2023-07-17T07:49:28.616Z,66.25
2023-07-17T07:51:56.320Z,66.84
2023-07-17T07:54:24.097Z,65.73
2023-07-17T07:56:52.333Z,65.57
2023-07-17T07:59:21.277Z,66.07
2023-07-17T08:01:48.974Z,65.64
2023-07-17T08:04:16.951Z,64.40
2023-07-17T08:06:44.678Z,65.73
2023-07-17T08:09:12.648Z,65.33
2023-07-17T08:11:40.996Z,64.60
2023-07-17T08:14:08.734Z,64.91
2023-07-17T08:16:37.781Z,63.85
2023-07-17T08:19:05.427Z,62.75
2023-07-17T08:21:33.194Z,63.12
2023-07-17T08:24:00.837Z,62.82
2023-07-17T08:26:28.661Z,62.17
2023-07-17T08:28:56.602Z,61.39
2023-07-17T08:31:24.494Z,62.08
2023-07-17T08:33:53.946Z,61.79
2023-07-17T08:36:23.361Z,60.83
2023-07-17T08:38:51.078Z,61.50
2023-07-17T08:41:18.701Z,60.75
2023-07-17T08:43:46.820Z,60.25
2023-07-17T08:46:14.934Z,60.69
2023-07-17T08:48:44.763Z,60.39
2023-07-17T08:51:14.048Z,59.44
2023-07-17T08:53:43.157Z,59.90
2023-07-17T08:56:12.365Z,59.03
2023-07-17T08:58:41.308Z,58.65
2023-07-17T09:01:09.463Z,57.93
2023-07-17T09:03:38.102Z,58.20
2023-07-17T09:06:06.952Z,57.57
2023-07-17T09:08:35.912Z,56.72
2023-07-17T09:11:04.372Z,57.52
2023-07-17T09:13:39.381Z,57.84
2023-07-17T09:16:18.282Z,57.25
2023-07-17T09:18:46.752Z,55.87
2023-07-17T09:21:15.780Z,56.23
2023-07-17T09:23:47.329Z,55.21
2023-07-17T09:26:15.636Z,54.24
2023-07-17T09:28:50.572Z,54.37
2023-07-17T09:31:26.077Z,53.84
2023-07-17T09:33:54.045Z,53.62
2023-07-17T09:36:22.350Z,53.11
2023-07-17T09:38:55.495Z,52.79
2023-07-17T09:41:25.109Z,50.92
2023-07-17T09:43:54.215Z,51.06
2023-07-17T09:46:22.065Z,50.07
2023-07-17T09:48:51.970Z,51.61
2023-07-17T09:51:20.529Z,51.91
2023-07-17T09:53:48.850Z,52.05
2023-07-17T09:56:19.224Z,53.12
2023-07-17T09:58:47.889Z,53.13
2023-07-17T10:01:18.440Z,52.49
2023-07-17T10:03:48.368Z,52.59
2023-07-17T10:06:17.877Z,52.92
2023-07-17T10:08:47.572Z,52.54
2023-07-17T10:11:17.924Z,52.92
2023-07-17T10:13:47.144Z,53.07
2023-07-17T10:16:21.034Z,52.88
2023-07-17T10:18:50.326Z,54.14
2023-07-17T10:21:19.472Z,52.67
2023-07-17T10:23:50.927Z,50.73
2023-07-17T10:26:21.644Z,51.75
2023-07-17T10:28:51.104Z,50.58
2023-07-17T10:31:21.169Z,50.94
2023-07-17T10:33:51.576Z,49.09
2023-07-17T10:36:19.631Z,49.89
2023-07-17T10:38:52.319Z,49.33
2023-07-17T10:41:27.762Z,50.92
2023-07-17T10:44:15.976Z,50.31
2023-07-17T10:46:44.122Z,49.81
2023-07-17T10:49:13.583Z,50.22
2023-07-17T10:51:44.911Z,49.46
2023-07-17T10:54:13.213Z,49.17
2023-07-17T10:56:43.975Z,47.64
2023-07-17T10:59:11.711Z,48.43
2023-07-17T11:01:39.665Z,48.95
2023-07-17T11:04:08.768Z,48.48
2023-07-17T11:06:36.588Z,48.33
2023-07-17T11:09:04.893Z,48.52
2023-07-17T11:11:33.937Z,48.60
2023-07-17T11:14:03.067Z,48.14
2023-07-17T11:16:30.768Z,48.33
2023-07-17T11:18:58.487Z,48.49
2023-07-17T11:21:27.298Z,48.55
2023-07-17T11:23:56.506Z,48.34
2023-07-17T11:26:26.549Z,47.99
2023-07-17T11:28:55.899Z,48.08
2023-07-17T11:31:28.184Z,48.75
2023-07-17T11:33:59.861Z,47.50
2023-07-17T11:36:27.851Z,48.39
2023-07-17T11:38:58.236Z,48.55
2023-07-17T11:41:26.708Z,47.91
2023-07-17T11:43:59.053Z,47.15
2023-07-17T11:46:28.159Z,47.77
2023-07-17T11:48:56.207Z,46.68
2023-07-17T11:51:27.307Z,47.11
2023-07-17T11:53:55.935Z,47.70
2023-07-17T11:56:34.517Z,45.85
2023-07-17T11:59:02.689Z,45.99
2023-07-17T12:01:31.770Z,46.25
2023-07-17T12:04:16.740Z,46.87
2023-07-17T12:06:44.577Z,46.61
2023-07-17T12:09:12.246Z,45.30
2023-07-17T12:11:39.961Z,44.04
2023-07-17T12:14:07.627Z,44.69
2023-07-17T12:16:36.755Z,43.88
2023-07-17T12:19:05.089Z,45.07
2023-07-17T12:21:36.221Z,45.21
2023-07-17T12:24:08.824Z,45.27
2023-07-17T12:26:36.889Z,44.73
2023-07-17T12:29:05.025Z,45.62
2023-07-17T12:31:32.758Z,45.83
2023-07-17T12:34:01.825Z,45.93
2023-07-17T12:36:29.544Z,45.82
2023-07-17T12:39:12.914Z,45.24
2023-07-17T12:41:40.563Z,44.48
2023-07-17T12:44:08.228Z,45.09
2023-07-17T12:46:35.980Z,44.83
2023-07-17T12:49:04.973Z,44.68
2023-07-17T12:51:32.653Z,44.57
2023-07-17T12:54:00.321Z,45.00
2023-07-17T12:56:28.484Z,45.75
2023-07-17T12:58:56.376Z,44.84
2023-07-17T13:01:24.770Z,45.58
2023-07-17T13:03:52.740Z,44.37
2023-07-17T13:06:21.838Z,44.58
2023-07-17T13:08:49.650Z,44.50
2023-07-17T13:11:17.800Z,44.84
2023-07-17T13:13:45.718Z,45.03
2023-07-17T13:16:13.475Z,44.70
2023-07-17T13:18:41.707Z,45.75
2023-07-17T13:21:09.349Z,46.31
2023-07-17T13:23:39.351Z,45.63
2023-07-17T13:26:07.116Z,45.33
2023-07-17T13:28:35.396Z,45.29
2023-07-17T13:31:09.950Z,45.08
2023-07-17T13:33:51.033Z,44.82
2023-07-17T13:36:18.716Z,44.78
2023-07-17T13:38:47.978Z,45.28
2023-07-17T13:41:42.510Z,45.82
2023-07-17T13:44:10.651Z,44.52
2023-07-17T13:46:38.947Z,45.29
2023-07-17T13:49:06.844Z,43.55
2023-07-17T13:51:34.750Z,44.45
2023-07-17T13:54:04.875Z,43.67
2023-07-17T13:59:05.465Z,44.28
2023-07-17T14:01:34.095Z,43.37
2023-07-17T14:04:04.083Z,43.79
2023-07-17T14:06:32.041Z,44.19
2023-07-17T14:08:59.748Z,44.66
2023-07-17T14:11:30.170Z,45.25
2023-07-17T14:14:01.044Z,44.85
2023-07-17T14:16:29.175Z,44.75
2023-07-17T14:18:57.145Z,43.77
2023-07-17T14:21:24.769Z,44.36
2023-07-17T14:23:52.484Z,44.08
2023-07-17T14:26:20.451Z,43.07
2023-07-17T14:28:49.817Z,43.98
2023-07-17T14:31:17.483Z,43.97
2023-07-17T14:33:46.540Z,43.93
2023-07-17T14:36:14.295Z,44.17
2023-07-17T14:38:42.195Z,43.09
2023-07-17T14:41:09.919Z,43.07
2023-07-17T14:43:38.370Z,43.60
2023-07-17T14:46:07.702Z,43.26
2023-07-17T14:48:35.571Z,43.01
2023-07-17T14:51:03.942Z,43.20
2023-07-17T14:53:32.422Z,43.71
2023-07-17T14:56:00.134Z,42.96
2023-07-17T14:58:28.450Z,43.68
2023-07-17T15:00:56.198Z,43.38
2023-07-17T15:03:26.670Z,43.26
2023-07-17T15:05:54.601Z,43.38
2023-07-17T15:08:22.376Z,44.50
2023-07-17T15:10:50.095Z,43.83
2023-07-17T15:13:17.943Z,43.00
2023-07-17T15:15:46.027Z,43.53
2023-07-17T15:18:13.709Z,42.56
2023-07-17T15:20:43.004Z,42.54
2023-07-17T15:23:10.880Z,43.26
2023-07-17T15:25:38.566Z,44.25
2023-07-17T15:28:06.391Z,42.72
2023-07-17T15:30:34.115Z,42.90
2023-07-17T15:33:01.720Z,42.94
2023-07-17T15:35:29.556Z,42.57
2023-07-17T15:37:58.640Z,42.53
2023-07-17T15:40:26.333Z,42.90
2023-07-17T15:42:53.971Z,42.81
2023-07-17T15:45:22.854Z,42.96
2023-07-17T15:47:51.540Z,43.30
2023-07-17T15:50:19.469Z,42.71
2023-07-17T15:52:47.374Z,43.12
2023-07-17T15:55:16.464Z,42.66
2023-07-17T15:57:44.273Z,42.90
2023-07-17T16:00:12.765Z,43.17
2023-07-17T16:02:40.473Z,43.04
2023-07-17T16:05:08.929Z,42.99
2023-07-17T16:07:36.628Z,44.03
2023-07-17T16:10:04.632Z,43.56
2023-07-17T16:12:33.732Z,43.95
2023-07-17T16:15:02.354Z,43.52
2023-07-17T16:17:30.114Z,43.62
2023-07-17T16:19:57.751Z,44.27
2023-07-17T16:22:25.498Z,44.24
2023-07-17T16:24:53.246Z,44.69
2023-07-17T16:27:20.884Z,44.17
2023-07-17T16:29:49.914Z,43.66
2023-07-17T16:32:17.653Z,43.63
2023-07-17T16:34:45.328Z,43.72
2023-07-17T16:37:12.979Z,44.05
2023-07-17T16:39:40.690Z,44.33
2023-07-17T16:42:09.142Z,44.23
2023-07-17T16:44:37.609Z,45.11
2023-07-17T16:47:07.643Z,45.07
2023-07-17T16:49:35.378Z,45.05
2023-07-17T16:52:03.267Z,45.08
2023-07-17T16:54:30.898Z,45.14
2023-07-17T16:56:58.854Z,45.76
2023-07-17T16:59:26.627Z,46.21
2023-07-17T17:01:54.395Z,45.37
2023-07-17T17:04:23.487Z,45.57
2023-07-17T17:06:51.169Z,45.87
2023-07-17T17:09:20.102Z,46.08
2023-07-17T17:11:49.672Z,45.23
2023-07-17T17:14:18.526Z,44.63
2023-07-17T17:16:46.318Z,45.05
2023-07-17T17:19:14.056Z,45.56
2023-07-17T17:21:43.195Z,45.17
2023-07-17T17:24:10.804Z,45.36
2023-07-17T17:26:38.449Z,45.42
2023-07-17T17:29:06.106Z,44.98
2023-07-17T17:31:33.886Z,44.67
2023-07-17T17:34:01.589Z,45.23
2023-07-17T17:36:29.297Z,45.16
2023-07-17T17:38:58.366Z,44.95
2023-07-17T17:41:27.845Z,45.29
2023-07-17T17:43:55.546Z,45.71
2023-07-17T17:46:23.372Z,45.61
2023-07-17T17:48:51.009Z,45.09
2023-07-17T17:51:19.518Z,45.17
2023-07-17T17:53:47.318Z,44.64
2023-07-17T17:56:16.320Z,44.43
2023-07-17T17:58:44.011Z,44.25
2023-07-17T18:01:11.806Z,44.84
2023-07-17T18:03:39.554Z,45.02
2023-07-17T18:06:10.275Z,45.48
2023-07-17T18:08:38.320Z,45.88
2023-07-17T18:11:07.328Z,46.32
2023-07-17T18:13:36.400Z,46.52
2023-07-17T18:16:04.103Z,47.18
2023-07-17T18:18:31.820Z,47.56
2023-07-17T18:20:59.591Z,47.43
2023-07-17T18:23:27.295Z,48.03
2023-07-17T18:25:54.923Z,48.49
2023-07-17T18:28:22.597Z,48.80
2023-07-17T18:30:51.608Z,48.60
2023-07-17T18:33:21.375Z,48.71
2023-07-17T18:35:49.901Z,49.01
2023-07-17T18:38:17.890Z,49.02
2023-07-17T18:40:45.739Z,49.45
2023-07-17T18:43:16.077Z,48.97
2023-07-17T18:45:43.948Z,49.70
2023-07-17T18:48:13.575Z,49.49
2023-07-17T18:50:42.633Z,50.12
2023-07-17T18:53:10.382Z,49.98
2023-07-17T18:55:38.039Z,50.01
2023-07-17T18:58:06.058Z,49.89
2023-07-17T19:00:34.082Z,50.20
2023-07-17T19:03:01.781Z,50.60
2023-07-17T19:05:30.964Z,50.79
2023-07-17T19:08:04.127Z,51.18
2023-07-17T19:10:31.764Z,51.08
2023-07-17T19:12:59.414Z,51.60
2023-07-17T19:15:27.338Z,51.99
2023-07-17T19:17:54.970Z,52.58
2023-07-17T19:20:22.670Z,53.72
2023-07-17T19:22:53.083Z,53.47
2023-07-17T19:25:21.074Z,54.85
2023-07-17T19:27:49.292Z,55.21
2023-07-17T19:30:17.125Z,55.04
2023-07-17T19:32:45.024Z,55.49
2023-07-17T19:35:12.761Z,55.91
2023-07-17T19:37:40.897Z,56.34
2023-07-17T19:40:12.428Z,56.71
2023-07-17T19:42:40.071Z,56.96
2023-07-17T19:45:08.550Z,57.74
2023-07-17T19:47:36.278Z,58.26
2023-07-17T19:50:04.241Z,57.67
2023-07-17T19:52:31.874Z,58.18
2023-07-17T19:54:59.978Z,58.33
2023-07-17T19:57:29.018Z,58.49
2023-07-17T19:59:58.569Z,58.93
2023-07-17T20:02:27.922Z,58.63
2023-07-17T20:04:56.033Z,59.38
2023-07-17T20:07:23.804Z,59.23
2023-07-17T20:09:52.731Z,59.13
2023-07-17T20:12:21.365Z,59.28
2023-07-17T20:14:50.410Z,59.05
2023-07-17T20:17:21.922Z,59.19
2023-07-17T20:19:49.765Z,59.40
2023-07-17T20:22:17.394Z,58.84
2023-07-17T20:24:45.011Z,59.33
2023-07-17T20:27:12.621Z,59.58
2023-07-17T20:29:40.211Z,59.78
2023-07-17T20:32:11.435Z,59.34
2023-07-17T20:34:41.038Z,59.47
2023-07-17T20:37:09.174Z,59.53
2023-07-17T20:39:37.049Z,59.76
2023-07-17T20:42:05.780Z,59.85
2023-07-17T20:44:33.579Z,59.94
2023-07-17T20:47:01.279Z,59.70
2023-07-17T20:49:30.591Z,60.05
2023-07-17T20:51:58.503Z,60.06
2023-07-17T20:54:28.202Z,60.10
2023-07-17T20:56:57.046Z,60.30
2023-07-17T20:59:24.735Z,60.04
2023-07-17T21:01:52.465Z,60.26
2023-07-17T21:04:20.172Z,60.77
2023-07-17T21:06:49.160Z,60.79
2023-07-17T21:09:16.867Z,60.95
2023-07-17T21:11:48.013Z,61.33
2023-07-17T21:14:15.964Z,61.49
2023-07-17T21:16:45.183Z,62.07
2023-07-17T21:19:13.260Z,62.69
2023-07-17T21:21:40.907Z,63.45
2023-07-17T21:24:09.944Z,63.95
2023-07-17T21:26:37.609Z,64.43
2023-07-17T21:29:07.353Z,64.86
2023-07-17T21:31:35.228Z,65.13
2023-07-17T21:34:03.593Z,65.94
2023-07-17T21:36:31.349Z,66.46
2023-07-17T21:38:59.097Z,66.76
2023-07-17T21:41:28.693Z,67.07
2023-07-17T21:43:56.386Z,67.10
2023-07-17T21:46:24.491Z,67.52
2023-07-17T21:48:52.178Z,68.02
2023-07-17T21:51:21.419Z,68.49
2023-07-17T21:53:49.267Z,68.81
2023-07-17T21:56:17.909Z,69.44
2023-07-17T21:58:46.923Z,69.77
2023-07-17T22:01:14.778Z,70.06
2023-07-17T22:03:42.893Z,70.36
2023-07-17T22:06:10.652Z,70.66
2023-07-17T22:08:38.327Z,71.47
2023-07-17T22:11:05.957Z,71.38
2023-07-17T22:13:36.024Z,71.72
2023-07-17T22:16:05.554Z,72.17
2023-07-17T22:18:33.401Z,72.42
2023-07-17T22:21:01.349Z,72.54
2023-07-17T22:23:29.378Z,72.30
2023-07-17T22:25:57.122Z,73.21
2023-07-17T22:28:24.951Z,73.22
2023-07-17T22:30:52.672Z,73.30
2023-07-17T22:33:21.707Z,73.66
2023-07-17T22:35:49.400Z,73.63
2023-07-17T22:38:17.002Z,73.87
2023-07-17T22:40:44.868Z,73.84
2023-07-17T22:43:13.897Z,74.00
2023-07-17T22:45:42.702Z,73.77
2023-07-17T22:48:10.457Z,73.51
2023-07-17T22:50:39.558Z,74.09
2023-07-17T22:53:07.176Z,73.80
2023-07-17T22:55:35.383Z,73.86
2023-07-17T22:58:03.263Z,74.02
2023-07-17T23:00:31.175Z,73.39
2023-07-17T23:02:58.953Z,73.76
2023-07-17T23:05:26.864Z,73.86
2023-07-17T23:07:56.191Z,74.39
2023-07-17T23:10:23.927Z,74.44
2023-07-17T23:12:51.610Z,74.19
2023-07-17T23:15:19.506Z,74.21
2023-07-17T23:17:48.601Z,74.37
2023-07-17T23:20:17.991Z,74.07
2023-07-17T23:22:46.965Z,73.78
2023-07-17T23:25:16.072Z,74.16
2023-07-17T23:27:43.719Z,73.46
2023-07-17T23:30:12.059Z,75.18
2023-07-17T23:32:39.965Z,76.40
2023-07-17T23:35:08.042Z,76.89
2023-07-17T23:37:35.815Z,77.01
2023-07-17T23:40:05.059Z,76.91
2023-07-17T23:42:34.157Z,77.14
2023-07-17T23:45:02.420Z,77.25
2023-07-17T23:47:30.709Z,77.42
2023-07-17T23:49:58.396Z,76.96
2023-07-17T23:52:26.074Z,76.42
2023-07-17T23:54:55.264Z,77.35
2023-07-17T23:57:22.948Z,77.34
2023-07-17T23:59:52.312Z,77.44
